Terminal Aerodrome Forecast
Issued by NWS Jackson, MS

Home | Current Version | Previous Version | Text Only | Print | Product List | Glossary On
Versions: 1 2 3 4 5 6 7 8 9 10 11 12 13 14
744
FTUS44 KJAN 182320
TAFGLH
TAF
KGLH 182320Z 1900/1924 32025G36KT P6SM BKN100
     FM190300 34017G28KT P6SM BKN025
     FM190600 33012G20KT P6SM SKC
     FM190800 33010KT P6SM SKC=

USA.gov is the U.S. government's official web portal to all federal, state and local government web resources and services.